sensor_id;sensor_type;location;lat;lon;timestamp;P1;durP1;ratioP1;P2;durP2;ratioP2
16967;SDS011;64862;54.398;10.126;2022-12-29T00:03:26;5.10;;;4.10;;
16967;SDS011;64862;54.398;10.126;2022-12-29T00:13:28;8.10;;;5.80;;
16967;SDS011;64862;54.398;10.126;2022-12-29T00:23:50;9.70;;;7.80;;
16967;SDS011;64862;54.398;10.126;2022-12-29T00:34:10;10.30;;;8.48;;
16967;SDS011;64862;54.398;10.126;2022-12-29T00:44:31;13.75;;;9.02;;
16967;SDS011;64862;54.398;10.126;2022-12-29T00:54:34;13.00;;;9.32;;
16967;SDS011;64862;54.398;10.126;2022-12-29T01:04:39;11.65;;;8.90;;
16967;SDS011;64862;54.398;10.126;2022-12-29T01:14:41;11.50;;;9.05;;
16967;SDS011;64862;54.398;10.126;2022-12-29T01:24:45;10.63;;;8.90;;
16967;SDS011;64862;54.398;10.126;2022-12-29T01:34:47;11.55;;;9.93;;
16967;SDS011;64862;54.398;10.126;2022-12-29T01:44:52;12.05;;;10.70;;
16967;SDS011;64862;54.398;10.126;2022-12-29T01:54:55;13.52;;;10.75;;
16967;SDS011;64862;54.398;10.126;2022-12-29T02:05:01;13.48;;;11.25;;
16967;SDS011;64862;54.398;10.126;2022-12-29T02:15:08;13.27;;;11.57;;
16967;SDS011;64862;54.398;10.126;2022-12-29T02:25:32;12.52;;;11.07;;
16967;SDS011;64862;54.398;10.126;2022-12-29T02:35:56;12.48;;;11.13;;
16967;SDS011;64862;54.398;10.126;2022-12-29T02:46:03;12.93;;;10.73;;
16967;SDS011;64862;54.398;10.126;2022-12-29T02:56:10;13.88;;;10.77;;
16967;SDS011;64862;54.398;10.126;2022-12-29T03:06:20;13.05;;;10.93;;
16967;SDS011;64862;54.398;10.126;2022-12-29T03:16:38;14.40;;;11.55;;
16967;SDS011;64862;54.398;10.126;2022-12-29T03:26:46;12.88;;;10.57;;
16967;SDS011;64862;54.398;10.126;2022-12-29T03:36:54;11.82;;;10.35;;
16967;SDS011;64862;54.398;10.126;2022-12-29T03:47:02;12.23;;;10.93;;
16967;SDS011;64862;54.398;10.126;2022-12-29T03:57:07;12.35;;;9.65;;
16967;SDS011;64862;54.398;10.126;2022-12-29T04:07:20;12.23;;;9.15;;
16967;SDS011;64862;54.398;10.126;2022-12-29T04:17:27;9.70;;;8.13;;
16967;SDS011;64862;54.398;10.126;2022-12-29T04:27:30;9.02;;;8.07;;
16967;SDS011;64862;54.398;10.126;2022-12-29T04:37:52;9.88;;;8.85;;
16967;SDS011;64862;54.398;10.126;2022-12-29T04:47:54;9.32;;;8.23;;
16967;SDS011;64862;54.398;10.126;2022-12-29T04:58:17;10.55;;;8.35;;
16967;SDS011;64862;54.398;10.126;2022-12-29T05:08:21;9.20;;;8.07;;
16967;SDS011;64862;54.398;10.126;2022-12-29T05:18:25;8.88;;;7.78;;
16967;SDS011;64862;54.398;10.126;2022-12-29T05:28:27;8.45;;;7.55;;
16967;SDS011;64862;54.398;10.126;2022-12-29T05:38:40;8.65;;;7.38;;
16967;SDS011;64862;54.398;10.126;2022-12-29T05:48:42;10.48;;;7.82;;
16967;SDS011;64862;54.398;10.126;2022-12-29T06:08:57;6.60;;;5.85;;
16967;SDS011;64862;54.398;10.126;2022-12-29T06:19:00;5.80;;;3.90;;
16967;SDS011;64862;54.398;10.126;2022-12-29T06:29:03;3.55;;;3.05;;
16967;SDS011;64862;54.398;10.126;2022-12-29T06:39:09;5.65;;;2.65;;
16967;SDS011;64862;54.398;10.126;2022-12-29T06:49:12;4.32;;;2.38;;
16967;SDS011;64862;54.398;10.126;2022-12-29T06:59:15;4.25;;;2.22;;
16967;SDS011;64862;54.398;10.126;2022-12-29T07:09:17;4.43;;;2.63;;
16967;SDS011;64862;54.398;10.126;2022-12-29T07:19:20;4.00;;;2.67;;
16967;SDS011;64862;54.398;10.126;2022-12-29T07:29:22;3.70;;;2.67;;
16967;SDS011;64862;54.398;10.126;2022-12-29T07:39:26;5.97;;;2.00;;
16967;SDS011;64862;54.398;10.126;2022-12-29T07:49:28;4.85;;;1.70;;
16967;SDS011;64862;54.398;10.126;2022-12-29T07:59:31;2.25;;;1.10;;
16967;SDS011;64862;54.398;10.126;2022-12-29T08:09:33;7.13;;;1.20;;
16967;SDS011;64862;54.398;10.126;2022-12-29T08:19:36;5.60;;;1.00;;
16967;SDS011;64862;54.398;10.126;2022-12-29T08:29:39;6.63;;;1.10;;
16967;SDS011;64862;54.398;10.126;2022-12-29T08:39:43;6.45;;;0.90;;
16967;SDS011;64862;54.398;10.126;2022-12-29T08:49:47;9.75;;;1.40;;
16967;SDS011;64862;54.398;10.126;2022-12-29T08:59:51;7.07;;;1.20;;
16967;SDS011;64862;54.398;10.126;2022-12-29T09:09:53;7.35;;;1.20;;
16967;SDS011;64862;54.398;10.126;2022-12-29T09:19:56;7.80;;;1.33;;
16967;SDS011;64862;54.398;10.126;2022-12-29T09:29:58;5.00;;;0.90;;
16967;SDS011;64862;54.398;10.126;2022-12-29T09:40:02;7.20;;;1.10;;
16967;SDS011;64862;54.398;10.126;2022-12-29T09:50:05;9.30;;;1.40;;
16967;SDS011;64862;54.398;10.126;2022-12-29T10:00:16;9.55;;;1.40;;
16967;SDS011;64862;54.398;10.126;2022-12-29T10:10:29;11.05;;;1.48;;
16967;SDS011;64862;54.398;10.126;2022-12-29T10:20:38;13.02;;;1.85;;
16967;SDS011;64862;54.398;10.126;2022-12-29T10:30:49;8.18;;;1.40;;
16967;SDS011;64862;54.398;10.126;2022-12-29T10:40:57;11.05;;;1.60;;
16967;SDS011;64862;54.398;10.126;2022-12-29T10:51:02;9.70;;;1.40;;
16967;SDS011;64862;54.398;10.126;2022-12-29T11:01:08;7.70;;;1.52;;
16967;SDS011;64862;54.398;10.126;2022-12-29T11:11:14;9.98;;;1.40;;
16967;SDS011;64862;54.398;10.126;2022-12-29T11:21:31;8.05;;;1.30;;
16967;SDS011;64862;54.398;10.126;2022-12-29T11:31:40;8.88;;;1.73;;
16967;SDS011;64862;54.398;10.126;2022-12-29T11:41:46;9.70;;;1.65;;
16967;SDS011;64862;54.398;10.126;2022-12-29T11:51:53;10.75;;;1.55;;
16967;SDS011;64862;54.398;10.126;2022-12-29T12:01:58;10.73;;;1.60;;
16967;SDS011;64862;54.398;10.126;2022-12-29T12:12:04;12.73;;;1.83;;
16967;SDS011;64862;54.398;10.126;2022-12-29T12:22:13;8.63;;;1.25;;
16967;SDS011;64862;54.398;10.126;2022-12-29T12:32:21;11.63;;;1.63;;
16967;SDS011;64862;54.398;10.126;2022-12-29T12:42:34;12.38;;;1.92;;
16967;SDS011;64862;54.398;10.126;2022-12-29T13:03:05;10.82;;;1.65;;
16967;SDS011;64862;54.398;10.126;2022-12-29T13:23:46;11.07;;;1.60;;
16967;SDS011;64862;54.398;10.126;2022-12-29T13:33:57;9.85;;;1.70;;
16967;SDS011;64862;54.398;10.126;2022-12-29T13:44:06;8.80;;;1.40;;
16967;SDS011;64862;54.398;10.126;2022-12-29T13:54:18;8.70;;;1.48;;
16967;SDS011;64862;54.398;10.126;2022-12-29T14:04:54;24.52;;;4.75;;
16967;SDS011;64862;54.398;10.126;2022-12-29T14:15:05;10.90;;;2.00;;
16967;SDS011;64862;54.398;10.126;2022-12-29T14:35:57;12.27;;;2.15;;
16967;SDS011;64862;54.398;10.126;2022-12-29T14:46:22;18.90;;;2.47;;
16967;SDS011;64862;54.398;10.126;2022-12-29T14:56:25;19.30;;;2.95;;
16967;SDS011;64862;54.398;10.126;2022-12-29T15:06:32;14.20;;;2.40;;
16967;SDS011;64862;54.398;10.126;2022-12-29T15:16:40;18.60;;;2.33;;
16967;SDS011;64862;54.398;10.126;2022-12-29T15:26:44;18.42;;;2.80;;
16967;SDS011;64862;54.398;10.126;2022-12-29T15:36:49;21.80;;;5.35;;
16967;SDS011;64862;54.398;10.126;2022-12-29T15:46:53;16.55;;;2.42;;
16967;SDS011;64862;54.398;10.126;2022-12-29T15:56:57;16.63;;;2.58;;
16967;SDS011;64862;54.398;10.126;2022-12-29T16:07:01;12.80;;;1.92;;
16967;SDS011;64862;54.398;10.126;2022-12-29T16:17:05;15.82;;;2.10;;
16967;SDS011;64862;54.398;10.126;2022-12-29T16:27:09;16.75;;;2.15;;
16967;SDS011;64862;54.398;10.126;2022-12-29T16:37:26;14.55;;;2.00;;
16967;SDS011;64862;54.398;10.126;2022-12-29T16:47:32;15.20;;;2.33;;
16967;SDS011;64862;54.398;10.126;2022-12-29T16:57:34;13.07;;;2.10;;
16967;SDS011;64862;54.398;10.126;2022-12-29T17:07:39;13.05;;;1.65;;
16967;SDS011;64862;54.398;10.126;2022-12-29T17:17:41;9.95;;;1.50;;
16967;SDS011;64862;54.398;10.126;2022-12-29T17:27:47;14.13;;;1.92;;
16967;SDS011;64862;54.398;10.126;2022-12-29T17:37:53;11.93;;;1.70;;
16967;SDS011;64862;54.398;10.126;2022-12-29T17:48:00;12.80;;;1.85;;
16967;SDS011;64862;54.398;10.126;2022-12-29T17:58:07;16.63;;;1.98;;
16967;SDS011;64862;54.398;10.126;2022-12-29T18:08:17;13.88;;;2.35;;
16967;SDS011;64862;54.398;10.126;2022-12-29T18:18:22;11.45;;;1.83;;
16967;SDS011;64862;54.398;10.126;2022-12-29T18:28:27;13.88;;;1.80;;
16967;SDS011;64862;54.398;10.126;2022-12-29T18:38:29;19.42;;;2.38;;
16967;SDS011;64862;54.398;10.126;2022-12-29T18:48:34;13.65;;;2.05;;
16967;SDS011;64862;54.398;10.126;2022-12-29T18:58:37;17.98;;;2.63;;
16967;SDS011;64862;54.398;10.126;2022-12-29T19:08:40;21.65;;;2.60;;
16967;SDS011;64862;54.398;10.126;2022-12-29T19:18:42;15.20;;;3.20;;
16967;SDS011;64862;54.398;10.126;2022-12-29T19:28:46;15.57;;;2.88;;
16967;SDS011;64862;54.398;10.126;2022-12-29T19:38:48;14.43;;;2.58;;
16967;SDS011;64862;54.398;10.126;2022-12-29T19:48:51;10.90;;;2.38;;
16967;SDS011;64862;54.398;10.126;2022-12-29T19:58:54;14.68;;;2.45;;
16967;SDS011;64862;54.398;10.126;2022-12-29T20:08:58;14.35;;;2.67;;
16967;SDS011;64862;54.398;10.126;2022-12-29T20:19:02;13.30;;;2.50;;
16967;SDS011;64862;54.398;10.126;2022-12-29T20:29:07;16.50;;;2.65;;
16967;SDS011;64862;54.398;10.126;2022-12-29T20:39:11;12.93;;;2.35;;
16967;SDS011;64862;54.398;10.126;2022-12-29T20:49:17;11.38;;;1.83;;
16967;SDS011;64862;54.398;10.126;2022-12-29T20:59:18;8.88;;;1.60;;
16967;SDS011;64862;54.398;10.126;2022-12-29T21:09:24;10.85;;;1.40;;
16967;SDS011;64862;54.398;10.126;2022-12-29T21:19:26;9.40;;;1.30;;
16967;SDS011;64862;54.398;10.126;2022-12-29T21:29:29;6.75;;;1.08;;
16967;SDS011;64862;54.398;10.126;2022-12-29T21:39:31;7.18;;;1.23;;
16967;SDS011;64862;54.398;10.126;2022-12-29T21:49:34;10.23;;;1.50;;
16967;SDS011;64862;54.398;10.126;2022-12-29T21:59:36;8.07;;;1.48;;
16967;SDS011;64862;54.398;10.126;2022-12-29T22:20:16;12.82;;;1.83;;
16967;SDS011;64862;54.398;10.126;2022-12-29T22:30:20;12.82;;;1.80;;
16967;SDS011;64862;54.398;10.126;2022-12-29T22:40:23;24.67;;;2.50;;
16967;SDS011;64862;54.398;10.126;2022-12-29T22:50:29;17.70;;;2.60;;
16967;SDS011;64862;54.398;10.126;2022-12-29T23:00:31;12.30;;;2.00;;
16967;SDS011;64862;54.398;10.126;2022-12-29T23:10:34;17.33;;;2.35;;
16967;SDS011;64862;54.398;10.126;2022-12-29T23:20:37;15.40;;;2.38;;
16967;SDS011;64862;54.398;10.126;2022-12-29T23:30:40;16.95;;;2.38;;
16967;SDS011;64862;54.398;10.126;2022-12-29T23:40:44;18.17;;;2.40;;
16967;SDS011;64862;54.398;10.126;2022-12-29T23:50:48;16.23;;;2.47;;
